Sebastian, FL

7:58 AM EDT on September 17, 2014 (GMT -0400)
Melbourne International | Change Station
CLOSE
Current Station
Airport
Location: Melbourne,
Elevation: 33 ft
Nearby Weather Stations
Active Advisory: Coastal Hazard Statement

Elev 33 ft 28.10 °N, 80.65 °W | Updated 5 minutes ago

Partly Cloudy
Partly Cloudy
76 °F
Feels Like 76 °F
N
9
Wind Variable Wind from WSW

Today
High -- | Low -- °F
--% Chance of Precip.
Yesterday
High -- | Low -- °F
Precip. -- in
7:08 AM 7:24 PM
Last Quarter, 36% visible
Pressure 29.96 in
Visibility 10.0 miles
Clouds Few 2300 ft
Dew Point 71 °F
Humidity 85%
Rainfall 0.00 in
Snow Depth Not available.
UV 0 out of 12
Pollen 4.00 out of 12
Air Quality Not available.
Flu Activity Not available.
METAR KMLB 171153Z 25008KT 10SM FEW023 24/22 A2996 RMK AO2 SLP143 70007 T02440217 10244 20233 53008

More Conditions Fewer Conditions

Pressure 29.96 in
Visibility 10.0 miles
Clouds Few 2300 ft
Dew Point 71 °F
Humidity 85%
Rainfall 0.00 in
Snow Depth Not available.
UV 0 out of 12
Pollen 4.00 out of 12
Air Quality Not available.
Flu Activity Not available.
METAR KMLB 171153Z 25008KT 10SM FEW023 24/22 A2996 RMK AO2 SLP143 70007 T02440217 10244 20233 53008

More Conditions Fewer Conditions

Nowcast | as of 6:30 am EDT on September 17, 2014

showers continuing to move eastward... Through 900 am...isolated to locally scattered showers will continue to move east at 20 to 25 mph...primarily affecting a few locations from around Kissimmee Saint Cloud and Cocoa southward to near Lake Marian and Fellsmere. The activity will weaken as it heads east toward coastal areas of Brevard and Indian River counties. Additional details...including graphics are available online at: http://www.Srh.NOAA.Gov/mlb/blog.Php

×

10-Day Weather Forecast

Almanac

Astronomy

Sep. 17, 2014 Rise Set
Actual Time 7:08 AM EDT 7:24 PM EDT
Civil Twilight 6:44 AM EDT 7:47 PM EDT
Nautical Twilight 6:17 AM EDT 8:14 PM EDT
Astronomical Twilight 5:49 AM EDT 8:42 PM EDT
Moon 1:28 AM EDT 3:12 PM EDT
Length of Visible Light 13h 03m
Length of Day
12h 16m
Tomorrow will be 1m 38s shorter.
Last Quarter, 36% of the Moon is Illuminated
Today
Last Quarter
Sep 24
New
Oct 1
First Quarter
Oct 8
Full
Oct 15
Last Quarter

Today's Extremes

State Highs State Lows

Community

WunderPhotos

Upload Photos

1,754,002 photos uploaded!

Nearby

Snow Depth

Station Depth Elevation
No new snow has been reported.

Earthquake Activity

City Distance Mag. Time & Date
No recent earthquake activity has been reported nearby.
Minimum magnitude displayed is 2.5.

Coastal Water Temperatures

Place Temperature
Lake Worth, FL 84.9 °F
Trident Pier, FL 84.9 °F
Virginia Key, FL 84.9 °F

Nearby Weather Stations